sensor_id;sensor_type;location;lat;lon;timestamp;temperature;humidity
3424;DHT22;72707;50.120;8.500;2023-10-09T00:00:10;13.00;1.00
3424;DHT22;72707;50.120;8.500;2023-10-09T00:07:50;13.20;1.00
3424;DHT22;72707;50.120;8.500;2023-10-09T00:10:21;13.10;99.90
3424;DHT22;72707;50.120;8.500;2023-10-09T00:30:25;13.10;1.00
3424;DHT22;72707;50.120;8.500;2023-10-09T02:16:48;12.70;1.00
3424;DHT22;72707;50.120;8.500;2023-10-09T02:27:16;12.70;1.00
3424;DHT22;72707;50.120;8.500;2023-10-09T02:35:01;12.50;99.90
3424;DHT22;72707;50.120;8.500;2023-10-09T02:37:35;12.50;99.90
3424;DHT22;72707;50.120;8.500;2023-10-09T02:40:04;12.50;99.90
3424;DHT22;72707;50.120;8.500;2023-10-09T02:49:57;12.40;99.90
3424;DHT22;72707;50.120;8.500;2023-10-09T02:52:31;12.30;99.90
3424;DHT22;72707;50.120;8.500;2023-10-09T02:57:48;12.40;1.00
3424;DHT22;72707;50.120;8.500;2023-10-09T03:10:17;12.40;1.00
3424;DHT22;72707;50.120;8.500;2023-10-09T03:12:42;12.40;1.00
3424;DHT22;72707;50.120;8.500;2023-10-09T03:15:09;12.30;1.00
3424;DHT22;72707;50.120;8.500;2023-10-09T03:17:34;12.40;1.00
3424;DHT22;72707;50.120;8.500;2023-10-09T03:20:04;12.50;1.00
3424;DHT22;72707;50.120;8.500;2023-10-09T03:22:40;12.50;1.00
3424;DHT22;72707;50.120;8.500;2023-10-09T03:25:06;12.50;1.00
3424;DHT22;72707;50.120;8.500;2023-10-09T03:27:42;12.60;1.00
3424;DHT22;72707;50.120;8.500;2023-10-09T03:30:11;12.60;1.00
3424;DHT22;72707;50.120;8.500;2023-10-09T03:40:05;12.50;1.00
3424;DHT22;72707;50.120;8.500;2023-10-09T03:42:40;12.50;1.00
3424;DHT22;72707;50.120;8.500;2023-10-09T03:50:13;12.50;1.00
3424;DHT22;72707;50.120;8.500;2023-10-09T03:55:38;12.60;1.00
3424;DHT22;72707;50.120;8.500;2023-10-09T03:58:09;12.50;1.00
3424;DHT22;72707;50.120;8.500;2023-10-09T04:03:14;12.50;1.00
3424;DHT22;72707;50.120;8.500;2023-10-09T04:05:41;12.50;1.00
3424;DHT22;72707;50.120;8.500;2023-10-09T04:20:42;12.50;1.00
3424;DHT22;72707;50.120;8.500;2023-10-09T04:23:27;12.50;1.00
3424;DHT22;72707;50.120;8.500;2023-10-09T04:31:19;12.50;1.00
3424;DHT22;72707;50.120;8.500;2023-10-09T04:33:46;12.40;1.00
3424;DHT22;72707;50.120;8.500;2023-10-09T04:41:32;12.40;1.00
3424;DHT22;72707;50.120;8.500;2023-10-09T04:46:46;12.50;1.00
3424;DHT22;72707;50.120;8.500;2023-10-09T04:52:19;12.50;1.00
3424;DHT22;72707;50.120;8.500;2023-10-09T04:55:06;12.50;1.00
3424;DHT22;72707;50.120;8.500;2023-10-09T04:57:42;12.50;1.00
3424;DHT22;72707;50.120;8.500;2023-10-09T05:00:09;12.50;1.00
3424;DHT22;72707;50.120;8.500;2023-10-09T05:03:01;12.50;1.00
3424;DHT22;72707;50.120;8.500;2023-10-09T05:05:30;12.50;1.00
3424;DHT22;72707;50.120;8.500;2023-10-09T05:08:17;12.50;1.00
3424;DHT22;72707;50.120;8.500;2023-10-09T05:10:54;12.40;1.00
3424;DHT22;72707;50.120;8.500;2023-10-09T05:13:26;12.40;1.00
3424;DHT22;72707;50.120;8.500;2023-10-09T05:26:46;12.40;45.80
3424;DHT22;72707;50.120;8.500;2023-10-09T05:29:25;12.40;45.90
3424;DHT22;72707;50.120;8.500;2023-10-09T05:32:00;12.30;32.30
3424;DHT22;72707;50.120;8.500;2023-10-09T05:34:39;12.30;14.90
3424;DHT22;72707;50.120;8.500;2023-10-09T05:37:23;12.30;1.00
3424;DHT22;72707;50.120;8.500;2023-10-09T05:40:01;12.30;1.00
3424;DHT22;72707;50.120;8.500;2023-10-09T05:42:28;12.30;1.00
3424;DHT22;72707;50.120;8.500;2023-10-09T05:45:07;12.40;1.00
3424;DHT22;72707;50.120;8.500;2023-10-09T05:47:49;12.20;1.00
3424;DHT22;72707;50.120;8.500;2023-10-09T05:50:31;12.30;99.90
3424;DHT22;72707;50.120;8.500;2023-10-09T05:53:00;12.30;99.90
3424;DHT22;72707;50.120;8.500;2023-10-09T05:55:32;12.30;99.90
3424;DHT22;72707;50.120;8.500;2023-10-09T05:58:16;12.30;99.90
3424;DHT22;72707;50.120;8.500;2023-10-09T06:01:02;12.30;99.90
3424;DHT22;72707;50.120;8.500;2023-10-09T06:03:50;12.40;99.90
3424;DHT22;72707;50.120;8.500;2023-10-09T06:06:29;12.40;99.90
3424;DHT22;72707;50.120;8.500;2023-10-09T06:09:05;12.40;99.90
3424;DHT22;72707;50.120;8.500;2023-10-09T06:14:07;12.40;99.90
3424;DHT22;72707;50.120;8.500;2023-10-09T06:16:36;12.40;99.90
3424;DHT22;72707;50.120;8.500;2023-10-09T06:19:05;12.50;99.90
3424;DHT22;72707;50.120;8.500;2023-10-09T06:21:37;12.50;99.90
3424;DHT22;72707;50.120;8.500;2023-10-09T06:24:25;12.50;99.90
3424;DHT22;72707;50.120;8.500;2023-10-09T06:26:59;12.50;99.90
3424;DHT22;72707;50.120;8.500;2023-10-09T06:32:10;12.60;99.90
3424;DHT22;72707;50.120;8.500;2023-10-09T06:35:01;12.60;99.90
3424;DHT22;72707;50.120;8.500;2023-10-09T06:37:49;12.70;99.90
3424;DHT22;72707;50.120;8.500;2023-10-09T06:40:37;12.70;21.10
3424;DHT22;72707;50.120;8.500;2023-10-09T06:43:23;12.70;1.00
3424;DHT22;72707;50.120;8.500;2023-10-09T06:48:25;13.00;1.00
3424;DHT22;72707;50.120;8.500;2023-10-09T06:58:31;13.10;1.00
3424;DHT22;72707;50.120;8.500;2023-10-09T07:01:07;13.10;1.00
3424;DHT22;72707;50.120;8.500;2023-10-09T07:03:50;13.10;1.00
3424;DHT22;72707;50.120;8.500;2023-10-09T07:06:20;13.20;1.00
3424;DHT22;72707;50.120;8.500;2023-10-09T07:08:56;13.30;1.00
3424;DHT22;72707;50.120;8.500;2023-10-09T07:11:37;13.30;1.00
3424;DHT22;72707;50.120;8.500;2023-10-09T07:14:17;13.30;99.90
3424;DHT22;72707;50.120;8.500;2023-10-09T07:17:04;13.40;99.90
3424;DHT22;72707;50.120;8.500;2023-10-09T07:20:00;13.30;97.10
3424;DHT22;72707;50.120;8.500;2023-10-09T07:22:39;13.30;1.00
3424;DHT22;72707;50.120;8.500;2023-10-09T07:25:20;13.30;99.90
3424;DHT22;72707;50.120;8.500;2023-10-09T07:28:06;13.30;99.90
3424;DHT22;72707;50.120;8.500;2023-10-09T07:30:47;13.40;99.90
3424;DHT22;72707;50.120;8.500;2023-10-09T07:33:13;13.40;99.90
3424;DHT22;72707;50.120;8.500;2023-10-09T07:35:40;13.50;99.90
3424;DHT22;72707;50.120;8.500;2023-10-09T07:38:11;13.50;99.90
3424;DHT22;72707;50.120;8.500;2023-10-09T07:40:37;13.50;99.90
3424;DHT22;72707;50.120;8.500;2023-10-09T07:43:30;13.50;99.90
3424;DHT22;72707;50.120;8.500;2023-10-09T07:46:09;13.70;1.00
3424;DHT22;72707;50.120;8.500;2023-10-09T07:48:55;13.70;1.00
3424;DHT22;72707;50.120;8.500;2023-10-09T07:51:22;13.80;1.00
3424;DHT22;72707;50.120;8.500;2023-10-09T07:54:09;14.40;99.90
3424;DHT22;72707;50.120;8.500;2023-10-09T07:56:41;14.50;1.00
3424;DHT22;72707;50.120;8.500;2023-10-09T07:59:11;14.50;1.00
3424;DHT22;72707;50.120;8.500;2023-10-09T08:01:40;14.60;1.00
3424;DHT22;72707;50.120;8.500;2023-10-09T08:04:21;14.70;1.00
3424;DHT22;72707;50.120;8.500;2023-10-09T08:07:06;14.70;1.00
3424;DHT22;72707;50.120;8.500;2023-10-09T08:09:33;14.90;1.00
3424;DHT22;72707;50.120;8.500;2023-10-09T08:12:14;15.00;1.00
3424;DHT22;72707;50.120;8.500;2023-10-09T08:14:58;14.90;99.90
3424;DHT22;72707;50.120;8.500;2023-10-09T08:17:57;15.10;99.90
3424;DHT22;72707;50.120;8.500;2023-10-09T08:20:29;15.20;1.00
3424;DHT22;72707;50.120;8.500;2023-10-09T08:26:13;15.30;1.00
3424;DHT22;72707;50.120;8.500;2023-10-09T08:28:43;15.30;1.00
3424;DHT22;72707;50.120;8.500;2023-10-09T08:31:16;15.30;1.00
3424;DHT22;72707;50.120;8.500;2023-10-09T08:34:00;15.10;1.00
3424;DHT22;72707;50.120;8.500;2023-10-09T08:36:28;15.10;1.00
3424;DHT22;72707;50.120;8.500;2023-10-09T08:38:56;15.20;1.00
3424;DHT22;72707;50.120;8.500;2023-10-09T08:41:38;15.20;1.00
3424;DHT22;72707;50.120;8.500;2023-10-09T08:44:04;15.20;1.00
3424;DHT22;72707;50.120;8.500;2023-10-09T08:46:30;15.20;1.00
3424;DHT22;72707;50.120;8.500;2023-10-09T08:48:58;15.20;1.00
3424;DHT22;72707;50.120;8.500;2023-10-09T08:51:25;15.50;99.90
3424;DHT22;72707;50.120;8.500;2023-10-09T08:53:51;15.50;99.90
3424;DHT22;72707;50.120;8.500;2023-10-09T08:56:18;15.70;99.90
3424;DHT22;72707;50.120;8.500;2023-10-09T08:58:54;15.70;99.90
3424;DHT22;72707;50.120;8.500;2023-10-09T09:01:20;15.70;99.90
3424;DHT22;72707;50.120;8.500;2023-10-09T09:03:48;15.80;99.90
3424;DHT22;72707;50.120;8.500;2023-10-09T09:06:16;15.90;99.90
3424;DHT22;72707;50.120;8.500;2023-10-09T09:08:43;15.90;99.90
3424;DHT22;72707;50.120;8.500;2023-10-09T09:11:13;16.00;99.90
3424;DHT22;72707;50.120;8.500;2023-10-09T09:14:00;16.10;99.90
3424;DHT22;72707;50.120;8.500;2023-10-09T09:16:40;15.90;99.90
3424;DHT22;72707;50.120;8.500;2023-10-09T09:24:09;15.70;99.90
3424;DHT22;72707;50.120;8.500;2023-10-09T09:27:05;15.90;99.90
3424;DHT22;72707;50.120;8.500;2023-10-09T09:29:46;16.00;99.90
3424;DHT22;72707;50.120;8.500;2023-10-09T09:32:27;16.10;99.90
3424;DHT22;72707;50.120;8.500;2023-10-09T09:35:08;16.00;99.90
3424;DHT22;72707;50.120;8.500;2023-10-09T09:37:52;16.20;99.90
3424;DHT22;72707;50.120;8.500;2023-10-09T09:40:18;16.20;99.90
3424;DHT22;72707;50.120;8.500;2023-10-09T09:43:00;16.20;99.90
3424;DHT22;72707;50.120;8.500;2023-10-09T09:45:36;16.40;99.90
3424;DHT22;72707;50.120;8.500;2023-10-09T09:50:36;16.40;99.90
3424;DHT22;72707;50.120;8.500;2023-10-09T09:53:12;16.50;99.90
3424;DHT22;72707;50.120;8.500;2023-10-09T09:55:52;16.40;99.90
3424;DHT22;72707;50.120;8.500;2023-10-09T09:58:21;16.50;99.90
3424;DHT22;72707;50.120;8.500;2023-10-09T10:00:50;16.50;99.90
3424;DHT22;72707;50.120;8.500;2023-10-09T10:03:31;16.60;99.90
3424;DHT22;72707;50.120;8.500;2023-10-09T10:06:00;16.50;99.90
3424;DHT22;72707;50.120;8.500;2023-10-09T10:08:30;16.60;99.90
3424;DHT22;72707;50.120;8.500;2023-10-09T10:10:59;16.60;99.90
3424;DHT22;72707;50.120;8.500;2023-10-09T10:16:10;16.60;99.90
3424;DHT22;72707;50.120;8.500;2023-10-09T10:18:59;16.70;99.90
3424;DHT22;72707;50.120;8.500;2023-10-09T10:21:47;17.10;99.90
3424;DHT22;72707;50.120;8.500;2023-10-09T10:27:17;17.10;99.90
3424;DHT22;72707;50.120;8.500;2023-10-09T10:32:54;17.20;63.40
3424;DHT22;72707;50.120;8.500;2023-10-09T10:35:21;17.50;44.40
3424;DHT22;72707;50.120;8.500;2023-10-09T10:41:18;17.90;2.90
3424;DHT22;72707;50.120;8.500;2023-10-09T10:43:48;17.90;1.00
3424;DHT22;72707;50.120;8.500;2023-10-09T10:46:14;18.30;1.00
3424;DHT22;72707;50.120;8.500;2023-10-09T10:48:55;18.20;1.00
3424;DHT22;72707;50.120;8.500;2023-10-09T10:51:41;18.10;1.00
3424;DHT22;72707;50.120;8.500;2023-10-09T10:54:08;18.20;1.00
3424;DHT22;72707;50.120;8.500;2023-10-09T10:56:53;18.60;1.00
3424;DHT22;72707;50.120;8.500;2023-10-09T10:59:22;18.60;1.00
3424;DHT22;72707;50.120;8.500;2023-10-09T11:01:49;18.90;1.00
3424;DHT22;72707;50.120;8.500;2023-10-09T11:04:46;18.80;1.00
3424;DHT22;72707;50.120;8.500;2023-10-09T11:07:21;18.80;1.00
3424;DHT22;72707;50.120;8.500;2023-10-09T11:09:54;19.10;1.00
3424;DHT22;72707;50.120;8.500;2023-10-09T11:15:14;19.50;1.00
3424;DHT22;72707;50.120;8.500;2023-10-09T11:17:58;19.50;1.00
3424;DHT22;72707;50.120;8.500;2023-10-09T11:20:24;19.70;1.00
3424;DHT22;72707;50.120;8.500;2023-10-09T11:22:57;19.70;1.00
3424;DHT22;72707;50.120;8.500;2023-10-09T11:25:40;19.80;1.00
3424;DHT22;72707;50.120;8.500;2023-10-09T11:28:20;19.90;1.00
3424;DHT22;72707;50.120;8.500;2023-10-09T11:31:12;20.00;1.00
3424;DHT22;72707;50.120;8.500;2023-10-09T11:33:48;20.10;1.00
3424;DHT22;72707;50.120;8.500;2023-10-09T11:36:15;20.00;1.00
3424;DHT22;72707;50.120;8.500;2023-10-09T11:38:41;19.80;1.00
3424;DHT22;72707;50.120;8.500;2023-10-09T11:41:17;19.90;1.00
3424;DHT22;72707;50.120;8.500;2023-10-09T11:43:46;20.00;1.00
3424;DHT22;72707;50.120;8.500;2023-10-09T11:46:21;20.20;1.00
3424;DHT22;72707;50.120;8.500;2023-10-09T11:49:10;20.10;1.00
3424;DHT22;72707;50.120;8.500;2023-10-09T11:51:47;20.30;1.00
3424;DHT22;72707;50.120;8.500;2023-10-09T11:54:32;20.50;1.00
3424;DHT22;72707;50.120;8.500;2023-10-09T11:56:59;20.60;1.00
3424;DHT22;72707;50.120;8.500;2023-10-09T11:59:28;20.90;1.00
3424;DHT22;72707;50.120;8.500;2023-10-09T12:02:00;21.10;1.00
3424;DHT22;72707;50.120;8.500;2023-10-09T12:04:26;21.10;1.00
3424;DHT22;72707;50.120;8.500;2023-10-09T12:06:58;21.20;1.00
3424;DHT22;72707;50.120;8.500;2023-10-09T12:09:33;21.10;1.00
3424;DHT22;72707;50.120;8.500;2023-10-09T12:12:03;21.10;1.00
3424;DHT22;72707;50.120;8.500;2023-10-09T12:14:30;21.10;1.00
3424;DHT22;72707;50.120;8.500;2023-10-09T12:17:07;21.00;1.00
3424;DHT22;72707;50.120;8.500;2023-10-09T12:19:34;20.80;1.00
3424;DHT22;72707;50.120;8.500;2023-10-09T12:22:01;20.80;1.00
3424;DHT22;72707;50.120;8.500;2023-10-09T12:24:27;20.90;1.00
3424;DHT22;72707;50.120;8.500;2023-10-09T12:26:54;20.80;1.00
3424;DHT22;72707;50.120;8.500;2023-10-09T12:29:20;20.70;1.00
3424;DHT22;72707;50.120;8.500;2023-10-09T12:31:45;20.70;1.00
3424;DHT22;72707;50.120;8.500;2023-10-09T12:34:12;20.70;1.00
3424;DHT22;72707;50.120;8.500;2023-10-09T12:36:42;20.80;1.00
3424;DHT22;72707;50.120;8.500;2023-10-09T12:39:09;20.90;1.00
3424;DHT22;72707;50.120;8.500;2023-10-09T12:41:43;20.90;1.00
3424;DHT22;72707;50.120;8.500;2023-10-09T12:44:09;20.90;1.00
3424;DHT22;72707;50.120;8.500;2023-10-09T12:46:43;20.90;1.00
3424;DHT22;72707;50.120;8.500;2023-10-09T12:49:20;20.90;1.00
3424;DHT22;72707;50.120;8.500;2023-10-09T12:51:53;21.00;1.00
3424;DHT22;72707;50.120;8.500;2023-10-09T12:54:18;21.10;1.00
3424;DHT22;72707;50.120;8.500;2023-10-09T12:56:46;21.00;1.00
3424;DHT22;72707;50.120;8.500;2023-10-09T12:59:14;21.00;1.00
3424;DHT22;72707;50.120;8.500;2023-10-09T13:01:43;21.10;1.00
3424;DHT22;72707;50.120;8.500;2023-10-09T13:04:13;21.20;1.00
3424;DHT22;72707;50.120;8.500;2023-10-09T13:06:43;21.20;1.00
3424;DHT22;72707;50.120;8.500;2023-10-09T13:09:16;21.20;1.00
3424;DHT22;72707;50.120;8.500;2023-10-09T13:11:50;21.30;1.00
3424;DHT22;72707;50.120;8.500;2023-10-09T13:14:16;21.30;1.00
3424;DHT22;72707;50.120;8.500;2023-10-09T13:16:43;21.40;1.00
3424;DHT22;72707;50.120;8.500;2023-10-09T13:19:08;21.40;1.00
3424;DHT22;72707;50.120;8.500;2023-10-09T13:21:38;21.30;1.00
3424;DHT22;72707;50.120;8.500;2023-10-09T13:24:07;21.30;1.00
3424;DHT22;72707;50.120;8.500;2023-10-09T13:26:39;21.30;1.00
3424;DHT22;72707;50.120;8.500;2023-10-09T13:29:06;21.30;1.00
3424;DHT22;72707;50.120;8.500;2023-10-09T13:31:36;21.10;1.00
3424;DHT22;72707;50.120;8.500;2023-10-09T13:34:04;21.10;1.00
3424;DHT22;72707;50.120;8.500;2023-10-09T13:36:33;21.20;1.00
3424;DHT22;72707;50.120;8.500;2023-10-09T13:39:00;21.20;1.00
3424;DHT22;72707;50.120;8.500;2023-10-09T13:42:05;21.20;1.00
3424;DHT22;72707;50.120;8.500;2023-10-09T13:44:33;21.20;1.00
3424;DHT22;72707;50.120;8.500;2023-10-09T15:09:55;20.40;99.90
3424;DHT22;72707;50.120;8.500;2023-10-09T15:12:26;20.30;1.00
3424;DHT22;72707;50.120;8.500;2023-10-09T15:14:52;20.20;1.00
3424;DHT22;72707;50.120;8.500;2023-10-09T15:17:19;20.10;1.00
3424;DHT22;72707;50.120;8.500;2023-10-09T15:22:10;20.10;1.00
3424;DHT22;72707;50.120;8.500;2023-10-09T15:24:37;20.10;1.00
3424;DHT22;72707;50.120;8.500;2023-10-09T15:29:31;20.10;1.00
3424;DHT22;72707;50.120;8.500;2023-10-09T15:31:59;20.10;1.00
3424;DHT22;72707;50.120;8.500;2023-10-09T15:34:40;20.00;1.00
3424;DHT22;72707;50.120;8.500;2023-10-09T15:37:06;19.90;1.00
3424;DHT22;72707;50.120;8.500;2023-10-09T15:39:35;19.80;1.00
3424;DHT22;72707;50.120;8.500;2023-10-09T15:42:01;19.80;1.00
3424;DHT22;72707;50.120;8.500;2023-10-09T15:44:32;19.60;1.00
3424;DHT22;72707;50.120;8.500;2023-10-09T15:47:04;19.50;1.00
3424;DHT22;72707;50.120;8.500;2023-10-09T15:49:33;19.50;1.00
3424;DHT22;72707;50.120;8.500;2023-10-09T15:51:59;19.40;1.00
3424;DHT22;72707;50.120;8.500;2023-10-09T15:54:27;19.60;1.00
3424;DHT22;72707;50.120;8.500;2023-10-09T15:56:52;19.60;1.00
3424;DHT22;72707;50.120;8.500;2023-10-09T15:59:20;19.40;1.00
3424;DHT22;72707;50.120;8.500;2023-10-09T16:01:45;19.40;1.00
3424;DHT22;72707;50.120;8.500;2023-10-09T16:04:11;19.30;1.00
3424;DHT22;72707;50.120;8.500;2023-10-09T16:06:37;19.30;1.00
3424;DHT22;72707;50.120;8.500;2023-10-09T16:09:07;19.30;1.00
3424;DHT22;72707;50.120;8.500;2023-10-09T16:11:49;19.20;1.00
3424;DHT22;72707;50.120;8.500;2023-10-09T16:14:14;19.10;1.00
3424;DHT22;72707;50.120;8.500;2023-10-09T16:16:41;19.10;1.00
3424;DHT22;72707;50.120;8.500;2023-10-09T16:21:42;19.10;1.00
3424;DHT22;72707;50.120;8.500;2023-10-09T16:31:40;18.90;1.00
3424;DHT22;72707;50.120;8.500;2023-10-09T16:44:21;18.80;1.00
3424;DHT22;72707;50.120;8.500;2023-10-09T18:41:07;17.30;1.00
3424;DHT22;72707;50.120;8.500;2023-10-09T18:51:15;17.20;1.00
3424;DHT22;72707;50.120;8.500;2023-10-09T21:19:11;15.80;1.00
3424;DHT22;72707;50.120;8.500;2023-10-09T21:41:38;15.40;1.00
3424;DHT22;72707;50.120;8.500;2023-10-09T21:51:24;15.30;1.00
3424;DHT22;72707;50.120;8.500;2023-10-09T21:56:16;15.40;1.00
3424;DHT22;72707;50.120;8.500;2023-10-09T22:09:04;15.30;1.00
3424;DHT22;72707;50.120;8.500;2023-10-09T22:13:58;15.20;1.00
3424;DHT22;72707;50.120;8.500;2023-10-09T22:21:17;15.20;1.00
3424;DHT22;72707;50.120;8.500;2023-10-09T22:26:12;15.20;1.00
3424;DHT22;72707;50.120;8.500;2023-10-09T22:28:40;15.20;1.00
3424;DHT22;72707;50.120;8.500;2023-10-09T22:31:10;15.20;1.00
3424;DHT22;72707;50.120;8.500;2023-10-09T22:33:40;15.20;1.00
3424;DHT22;72707;50.120;8.500;2023-10-09T22:36:16;15.20;1.00
3424;DHT22;72707;50.120;8.500;2023-10-09T22:48:38;15.10;1.00
3424;DHT22;72707;50.120;8.500;2023-10-09T22:51:07;15.10;1.00
3424;DHT22;72707;50.120;8.500;2023-10-09T22:53:39;15.10;1.00
3424;DHT22;72707;50.120;8.500;2023-10-09T22:56:06;15.00;1.00
3424;DHT22;72707;50.120;8.500;2023-10-09T22:58:34;14.90;1.00
3424;DHT22;72707;50.120;8.500;2023-10-09T23:01:03;14.80;1.00
3424;DHT22;72707;50.120;8.500;2023-10-09T23:19:00;15.10;1.00
3424;DHT22;72707;50.120;8.500;2023-10-09T23:21:28;15.10;1.00
3424;DHT22;72707;50.120;8.500;2023-10-09T23:23:59;15.20;1.00
3424;DHT22;72707;50.120;8.500;2023-10-09T23:26:37;15.30;1.00
3424;DHT22;72707;50.120;8.500;2023-10-09T23:32:04;15.80;1.00
3424;DHT22;72707;50.120;8.500;2023-10-09T23:34:48;16.00;1.00
3424;DHT22;72707;50.120;8.500;2023-10-09T23:37:21;16.20;1.00
3424;DHT22;72707;50.120;8.500;2023-10-09T23:45:29;15.80;1.00
3424;DHT22;72707;50.120;8.500;2023-10-09T23:50:25;15.50;1.00
3424;DHT22;72707;50.120;8.500;2023-10-09T23:57:57;15.30;1.00
